createdAt,value
2019-03-17T00:01:35.217Z,78.07
2019-03-17T00:04:04.416Z,78.51
2019-03-17T00:06:33.132Z,78.16
2019-03-17T00:09:02.081Z,78.23
2019-03-17T00:11:31.098Z,78.38
2019-03-17T00:13:59.852Z,78.53
2019-03-17T00:16:28.508Z,78.53
2019-03-17T00:18:57.452Z,78.76
2019-03-17T00:21:26.346Z,79.06
2019-03-17T00:23:54.954Z,78.42
2019-03-17T00:26:23.597Z,78.52
2019-03-17T00:28:52.493Z,78.75
2019-03-17T00:31:24.168Z,78.73
2019-03-17T00:33:51.725Z,79.22
2019-03-17T00:36:20.929Z,79.22
2019-03-17T00:38:49.818Z,79.55
2019-03-17T00:41:18.702Z,79.70
2019-03-17T00:43:47.597Z,79.70
2019-03-17T00:46:16.226Z,79.66
2019-03-17T00:48:45.702Z,79.82
2019-03-17T00:51:14.657Z,79.67
2019-03-17T00:53:43.573Z,79.95
2019-03-17T00:56:12.174Z,79.83
2019-03-17T00:58:41.151Z,79.66
2019-03-17T01:01:10.090Z,79.66
2019-03-17T01:03:38.715Z,79.47
2019-03-17T01:06:08.032Z,79.14
2019-03-17T01:08:37.338Z,79.06
2019-03-17T01:11:06.024Z,79.10
2019-03-17T01:13:35.313Z,78.94
2019-03-17T01:16:04.719Z,78.71
2019-03-17T01:18:33.630Z,79.01
2019-03-17T01:21:03.222Z,78.72
2019-03-17T01:23:32.415Z,78.64
2019-03-17T01:26:01.415Z,77.83
2019-03-17T01:28:30.316Z,78.01
2019-03-17T01:30:59.295Z,78.20
2019-03-17T01:33:28.595Z,78.12
2019-03-17T01:35:57.591Z,78.06
2019-03-17T01:38:26.785Z,77.97
2019-03-17T01:40:55.393Z,78.21
2019-03-17T01:43:24.369Z,77.91
2019-03-17T01:45:53.567Z,78.08
2019-03-17T01:48:22.453Z,78.22
2019-03-17T01:50:51.659Z,78.19
2019-03-17T01:53:20.544Z,77.78
2019-03-17T01:55:49.437Z,77.79
2019-03-17T01:58:18.114Z,77.53
2019-03-17T02:00:47.331Z,77.76
2019-03-17T02:03:15.935Z,77.80
2019-03-17T02:05:44.554Z,78.14
2019-03-17T02:08:13.799Z,78.28
2019-03-17T02:10:42.404Z,77.85
2019-03-17T02:13:11.272Z,77.85
2019-03-17T02:15:40.156Z,77.34
2019-03-17T02:18:08.796Z,77.03
2019-03-17T02:20:37.483Z,77.19
2019-03-17T02:23:06.053Z,76.92
2019-03-17T02:25:34.719Z,76.50
2019-03-17T02:28:04.113Z,76.50
2019-03-17T02:30:33.434Z,76.58
2019-03-17T02:33:02.070Z,76.50
2019-03-17T02:35:38.852Z,76.54
2019-03-17T02:38:02.273Z,76.47
2019-03-17T02:40:31.425Z,76.78
2019-03-17T02:43:00.628Z,77.04
2019-03-17T02:45:29.595Z,76.92
2019-03-17T02:47:58.517Z,77.00
2019-03-17T02:50:27.400Z,76.83
2019-03-17T02:52:56.399Z,76.83
2019-03-17T02:55:25.290Z,76.83
2019-03-17T02:57:53.917Z,77.19
2019-03-17T03:00:22.871Z,76.85
2019-03-17T03:02:51.762Z,76.29
2019-03-17T03:05:20.654Z,76.62
2019-03-17T03:07:49.272Z,76.43
2019-03-17T03:10:18.339Z,76.41
2019-03-17T03:12:47.224Z,76.41
2019-03-17T03:15:15.862Z,76.59
2019-03-17T03:17:44.536Z,76.91
2019-03-17T03:20:13.482Z,77.79
2019-03-17T03:22:42.683Z,77.79
2019-03-17T03:25:11.615Z,77.67
2019-03-17T03:27:40.879Z,77.84
2019-03-17T03:30:10.064Z,77.95
2019-03-17T03:32:38.973Z,78.07
2019-03-17T03:35:08.111Z,78.29
2019-03-17T03:37:37.060Z,78.04
2019-03-17T03:40:05.901Z,78.04
2019-03-17T03:42:34.949Z,78.38
2019-03-17T03:45:04.863Z,77.98
2019-03-17T03:47:33.747Z,78.46
2019-03-17T03:50:02.346Z,77.97
2019-03-17T03:52:31.653Z,77.78
2019-03-17T03:55:00.630Z,77.53
2019-03-17T03:57:29.234Z,77.50
2019-03-17T03:59:58.199Z,77.51
2019-03-17T04:02:26.825Z,77.29
2019-03-17T04:04:56.394Z,77.29
2019-03-17T04:07:25.385Z,77.20
2019-03-17T04:09:54.794Z,77.31
2019-03-17T04:12:23.522Z,77.02
2019-03-17T04:14:52.775Z,76.87
2019-03-17T04:17:22.078Z,76.66
2019-03-17T04:19:51.049Z,76.44
2019-03-17T04:22:20.033Z,76.64
2019-03-17T04:24:49.264Z,76.60
2019-03-17T04:27:18.255Z,76.59
2019-03-17T04:29:47.469Z,76.55
2019-03-17T04:32:16.350Z,76.58
2019-03-17T04:34:45.543Z,76.86
2019-03-17T04:37:14.723Z,76.74
2019-03-17T04:39:43.953Z,76.71
2019-03-17T04:42:12.574Z,76.24
2019-03-17T04:44:41.824Z,76.24
2019-03-17T04:47:11.023Z,75.90
2019-03-17T04:49:40.022Z,75.92
2019-03-17T04:52:08.642Z,75.72
2019-03-17T04:54:37.903Z,75.57
2019-03-17T04:57:06.577Z,76.04
2019-03-17T04:59:35.186Z,75.96
2019-03-17T05:02:04.288Z,75.96
2019-03-17T05:04:33.575Z,75.73
2019-03-17T05:07:02.463Z,75.39
2019-03-17T05:09:31.116Z,75.39
2019-03-17T05:11:59.726Z,75.09
2019-03-17T05:14:28.629Z,75.49
2019-03-17T05:16:57.517Z,75.43
2019-03-17T05:19:26.129Z,75.72
2019-03-17T05:21:55.100Z,75.68
2019-03-17T05:24:24.021Z,75.43
2019-03-17T05:26:52.987Z,75.67
2019-03-17T05:29:21.644Z,75.50
2019-03-17T05:31:50.556Z,75.50
2019-03-17T05:34:19.770Z,75.33
2019-03-17T05:36:48.373Z,75.26
2019-03-17T05:39:17.015Z,74.81
2019-03-17T05:41:45.896Z,74.81
2019-03-17T05:44:14.812Z,75.27
2019-03-17T05:46:43.552Z,75.56
2019-03-17T05:49:12.141Z,75.90
2019-03-17T05:51:40.803Z,75.90
2019-03-17T05:54:09.783Z,75.79
2019-03-17T05:56:38.762Z,75.79
2019-03-17T05:59:07.743Z,75.99
2019-03-17T06:01:36.413Z,75.99
2019-03-17T06:04:05.029Z,75.57
2019-03-17T06:06:34.003Z,75.33
2019-03-17T06:09:03.312Z,75.19
2019-03-17T06:11:32.921Z,75.33
2019-03-17T06:14:01.912Z,75.10
2019-03-17T06:16:31.111Z,74.02
2019-03-17T06:19:00.002Z,74.02
2019-03-17T06:21:28.895Z,74.39
2019-03-17T06:23:58.195Z,74.12
2019-03-17T06:26:27.182Z,74.12
2019-03-17T06:28:56.093Z,73.64
2019-03-17T06:31:24.759Z,73.54
2019-03-17T06:33:53.673Z,73.42
2019-03-17T06:36:22.637Z,73.76
2019-03-17T06:38:51.541Z,73.36
2019-03-17T06:41:20.561Z,73.05
2019-03-17T06:43:49.540Z,73.64
2019-03-17T06:46:18.529Z,73.21
2019-03-17T06:48:47.720Z,73.11
2019-03-17T06:51:16.410Z,72.71
2019-03-17T06:53:55.698Z,73.12
2019-03-17T06:56:15.755Z,72.85
2019-03-17T06:58:44.418Z,72.94
2019-03-17T07:01:13.075Z,73.01
2019-03-17T07:03:41.993Z,72.90
2019-03-17T07:06:10.984Z,73.16
2019-03-17T07:08:39.998Z,72.94
2019-03-17T07:11:10.926Z,72.98
2019-03-17T07:13:39.711Z,72.65
2019-03-17T07:16:08.394Z,72.93
2019-03-17T07:18:37.037Z,72.67
2019-03-17T07:21:05.681Z,72.67
2019-03-17T07:23:35.258Z,72.67
2019-03-17T07:26:04.252Z,72.63
2019-03-17T07:28:32.898Z,72.34
2019-03-17T07:31:01.563Z,72.32
2019-03-17T07:33:30.531Z,72.15
2019-03-17T07:35:59.529Z,72.37
2019-03-17T07:38:28.166Z,72.41
2019-03-17T07:40:57.045Z,72.54
2019-03-17T07:43:25.672Z,72.35
2019-03-17T07:45:54.910Z,72.38
2019-03-17T07:48:23.536Z,72.04
2019-03-17T07:50:52.198Z,71.40
2019-03-17T07:53:20.902Z,71.40
2019-03-17T07:55:49.517Z,71.52
2019-03-17T07:58:18.421Z,71.71
2019-03-17T08:00:47.615Z,71.27
2019-03-17T08:03:16.263Z,71.21
2019-03-17T08:05:44.909Z,71.29
2019-03-17T08:08:14.093Z,71.28
2019-03-17T08:10:42.703Z,71.22
2019-03-17T08:13:11.321Z,71.42
2019-03-17T08:15:40.251Z,71.21
2019-03-17T08:18:09.456Z,71.25
2019-03-17T08:20:38.148Z,71.28
2019-03-17T08:23:07.029Z,71.14
2019-03-17T08:25:35.654Z,71.33
2019-03-17T08:28:04.279Z,71.57
2019-03-17T08:30:33.190Z,71.59
2019-03-17T08:33:02.385Z,71.86
2019-03-17T08:35:31.276Z,71.93
2019-03-17T08:38:00.167Z,71.88
2019-03-17T08:40:29.218Z,72.13
2019-03-17T08:42:58.465Z,71.98
2019-03-17T08:45:27.365Z,72.48
2019-03-17T08:47:58.121Z,72.28
2019-03-17T08:50:26.421Z,73.41
2019-03-17T08:52:55.148Z,75.33
2019-03-17T08:55:24.215Z,76.67
2019-03-17T08:57:53.702Z,80.18
2019-03-17T09:00:22.751Z,82.22
2019-03-17T09:02:51.633Z,84.56
2019-03-17T09:05:20.213Z,84.32
2019-03-17T09:07:48.815Z,84.95
2019-03-17T09:10:17.548Z,85.46
2019-03-17T09:12:46.250Z,85.11
2019-03-17T09:15:14.936Z,85.43
2019-03-17T09:17:44.171Z,83.78
2019-03-17T09:20:12.880Z,84.72
2019-03-17T09:22:41.888Z,84.25
2019-03-17T09:25:10.659Z,83.06
2019-03-17T09:27:39.622Z,83.06
2019-03-17T09:30:10.205Z,83.66
2019-03-17T09:32:39.153Z,84.55
2019-03-17T09:35:08.609Z,84.33
2019-03-17T09:37:37.859Z,84.33
2019-03-17T09:40:07.777Z,84.28
2019-03-17T09:42:36.767Z,84.28
2019-03-17T09:45:06.096Z,83.79
2019-03-17T09:47:35.060Z,85.02
2019-03-17T09:50:03.864Z,84.23
2019-03-17T09:52:33.053Z,83.70
2019-03-17T09:55:02.247Z,83.64
2019-03-17T09:57:31.548Z,83.47
2019-03-17T10:00:00.262Z,82.41
2019-03-17T10:02:28.882Z,83.34
2019-03-17T10:04:57.795Z,84.25
2019-03-17T10:07:26.417Z,82.93
2019-03-17T10:09:55.393Z,82.93
2019-03-17T10:12:24.557Z,82.58
2019-03-17T10:14:53.201Z,82.31
2019-03-17T10:17:21.838Z,81.46
2019-03-17T10:19:51.367Z,81.46
2019-03-17T10:22:20.034Z,81.33
2019-03-17T10:24:48.657Z,80.98
2019-03-17T10:27:17.941Z,80.98
2019-03-17T10:29:47.240Z,80.54
2019-03-17T10:32:16.441Z,81.01
2019-03-17T10:34:45.430Z,80.02
2019-03-17T10:37:14.101Z,80.30
2019-03-17T10:39:43.017Z,79.33
2019-03-17T10:42:11.661Z,80.32
2019-03-17T10:44:40.897Z,78.82
2019-03-17T10:47:10.175Z,78.28
2019-03-17T10:49:38.846Z,77.05
2019-03-17T10:52:07.488Z,77.43
2019-03-17T10:54:36.121Z,77.20
2019-03-17T10:57:04.703Z,77.88
2019-03-17T10:59:33.362Z,77.27
2019-03-17T11:02:01.993Z,77.33
2019-03-17T11:04:30.906Z,77.60
2019-03-17T11:06:59.896Z,77.40
2019-03-17T11:09:28.784Z,76.62
2019-03-17T11:11:57.392Z,76.53
2019-03-17T11:14:26.670Z,76.86
2019-03-17T11:16:55.563Z,77.25
2019-03-17T11:19:25.656Z,77.97
2019-03-17T11:21:54.980Z,76.85
2019-03-17T11:24:23.877Z,76.86
2019-03-17T11:26:55.605Z,76.42
2019-03-17T11:29:23.487Z,76.57
2019-03-17T11:31:53.111Z,76.39
2019-03-17T11:34:21.743Z,77.05
2019-03-17T11:36:51.097Z,76.01
2019-03-17T11:39:20.293Z,75.59
2019-03-17T11:41:49.270Z,75.00
2019-03-17T11:44:17.935Z,75.17
2019-03-17T11:46:46.586Z,74.64
2019-03-17T11:49:15.781Z,74.18
2019-03-17T11:51:45.078Z,74.36
2019-03-17T11:54:13.721Z,75.37
2019-03-17T11:56:42.644Z,74.16
2019-03-17T11:59:11.279Z,73.94
2019-03-17T12:01:39.886Z,73.72
2019-03-17T12:04:08.792Z,72.90
2019-03-17T12:06:37.433Z,71.77
2019-03-17T12:09:07.677Z,72.44
2019-03-17T12:11:36.369Z,72.24
2019-03-17T12:14:05.077Z,71.20
2019-03-17T12:16:34.291Z,70.16
2019-03-17T12:19:02.911Z,70.78
2019-03-17T12:21:31.875Z,69.25
2019-03-17T12:24:00.848Z,66.55
2019-03-17T12:26:29.457Z,67.93
2019-03-17T12:28:58.342Z,64.62
2019-03-17T12:31:27.212Z,63.54
2019-03-17T12:33:56.104Z,63.54
2019-03-17T12:36:24.995Z,63.24
2019-03-17T12:38:53.886Z,61.49
2019-03-17T12:41:22.525Z,62.77
2019-03-17T12:43:51.776Z,62.44
2019-03-17T12:46:20.387Z,63.32
2019-03-17T12:48:49.666Z,63.10
2019-03-17T12:51:18.553Z,63.30
2019-03-17T12:53:47.443Z,63.45
2019-03-17T12:56:16.635Z,62.79
2019-03-17T12:58:45.531Z,63.44
2019-03-17T13:01:14.423Z,63.82
2019-03-17T13:03:43.060Z,63.36
2019-03-17T13:06:11.723Z,62.57
2019-03-17T13:08:40.581Z,61.11
2019-03-17T13:11:09.790Z,58.94
2019-03-17T13:13:38.418Z,57.47
2019-03-17T13:16:07.100Z,56.87
2019-03-17T13:18:36.051Z,55.48
2019-03-17T13:21:04.914Z,54.12
2019-03-17T13:23:33.852Z,54.23
2019-03-17T13:26:02.526Z,54.67
2019-03-17T13:28:31.195Z,54.66
2019-03-17T13:30:59.835Z,55.34
2019-03-17T13:33:28.488Z,51.57
2019-03-17T13:35:57.506Z,52.90
2019-03-17T13:38:26.168Z,54.14
2019-03-17T13:40:55.152Z,56.43
2019-03-17T13:43:23.795Z,56.64
2019-03-17T13:45:52.431Z,56.64
2019-03-17T13:48:21.737Z,57.65
2019-03-17T13:50:50.388Z,58.24
2019-03-17T13:53:18.991Z,57.79
2019-03-17T13:55:47.632Z,58.14
2019-03-17T13:58:16.256Z,58.54
2019-03-17T14:00:45.150Z,57.76
2019-03-17T14:03:13.779Z,59.40
2019-03-17T14:05:43.049Z,59.33
2019-03-17T14:08:11.929Z,58.49
2019-03-17T14:10:41.598Z,57.82
2019-03-17T14:13:10.391Z,58.65
2019-03-17T14:15:39.003Z,59.88
2019-03-17T14:18:08.310Z,58.58
2019-03-17T14:20:37.539Z,58.98
2019-03-17T14:23:06.528Z,59.40
2019-03-17T14:25:35.716Z,59.18
2019-03-17T14:28:04.393Z,58.67
2019-03-17T14:30:33.395Z,59.03
2019-03-17T14:33:02.580Z,60.39
2019-03-17T14:35:31.225Z,61.33
2019-03-17T14:38:00.165Z,62.46
2019-03-17T14:40:28.811Z,63.85
2019-03-17T14:42:57.803Z,63.85
2019-03-17T14:45:26.432Z,64.14
2019-03-17T14:47:55.393Z,62.47
2019-03-17T14:50:25.326Z,61.74
2019-03-17T14:52:53.950Z,59.33
2019-03-17T14:55:23.218Z,59.33
2019-03-17T14:57:52.732Z,56.67
2019-03-17T15:00:21.387Z,56.64
2019-03-17T15:02:50.206Z,57.00
2019-03-17T15:05:19.156Z,57.24
2019-03-17T15:07:47.766Z,57.14
2019-03-17T15:10:17.560Z,55.98
2019-03-17T15:12:46.595Z,57.76
2019-03-17T15:15:16.360Z,57.76
2019-03-17T15:17:45.413Z,60.92
2019-03-17T15:20:15.900Z,60.92
2019-03-17T15:22:44.810Z,62.24
2019-03-17T15:25:13.602Z,62.29
2019-03-17T15:27:42.476Z,63.86
2019-03-17T15:30:16.605Z,63.99
2019-03-17T15:32:45.598Z,64.18
2019-03-17T15:35:14.593Z,64.78
2019-03-17T15:37:43.314Z,64.78
2019-03-17T15:40:12.950Z,65.42
2019-03-17T15:42:42.033Z,66.23
2019-03-17T15:45:12.919Z,67.05
2019-03-17T15:47:41.545Z,67.95
2019-03-17T15:50:11.482Z,67.27
2019-03-17T15:52:40.091Z,66.68
2019-03-17T15:55:09.868Z,66.22
2019-03-17T15:57:38.911Z,66.16
2019-03-17T16:00:23.751Z,65.47
2019-03-17T16:02:41.164Z,66.65
2019-03-17T16:05:09.903Z,66.21
2019-03-17T16:07:42.454Z,65.80
2019-03-17T16:10:10.198Z,65.70
2019-03-17T16:12:38.898Z,65.93
2019-03-17T16:15:08.504Z,64.39
2019-03-17T16:17:37.419Z,63.63
2019-03-17T16:20:06.716Z,63.55
2019-03-17T16:22:35.716Z,62.96
2019-03-17T16:25:04.775Z,62.91
2019-03-17T16:27:33.700Z,63.66
2019-03-17T16:30:02.570Z,63.59
2019-03-17T16:32:31.495Z,65.10
2019-03-17T16:35:00.447Z,64.39
2019-03-17T16:37:29.134Z,64.98
2019-03-17T16:39:58.092Z,64.18
2019-03-17T16:42:26.723Z,63.98
2019-03-17T16:44:55.937Z,63.88
2019-03-17T16:47:24.846Z,64.66
2019-03-17T16:49:54.028Z,65.27
2019-03-17T16:52:22.680Z,65.09
2019-03-17T16:54:51.583Z,65.59
2019-03-17T16:57:20.476Z,66.05
2019-03-17T16:59:49.491Z,66.68
2019-03-17T17:02:18.707Z,67.16
2019-03-17T17:04:47.814Z,66.93
2019-03-17T17:07:17.434Z,67.06
2019-03-17T17:09:46.601Z,67.56
2019-03-17T17:12:15.772Z,67.89
2019-03-17T17:14:44.691Z,67.62
2019-03-17T17:17:13.571Z,67.92
2019-03-17T17:19:42.882Z,68.44
2019-03-17T17:22:11.527Z,67.94
2019-03-17T17:24:40.437Z,68.76
2019-03-17T17:27:09.052Z,68.08
2019-03-17T17:29:37.939Z,68.26
2019-03-17T17:32:06.603Z,68.97
2019-03-17T17:34:35.239Z,69.08
2019-03-17T17:37:03.941Z,68.65
2019-03-17T17:39:32.575Z,67.96
2019-03-17T17:42:09.037Z,67.00
2019-03-17T17:44:31.597Z,63.96
2019-03-17T17:47:00.203Z,63.96
2019-03-17T17:49:30.286Z,66.18
2019-03-17T17:51:59.283Z,66.18
2019-03-17T17:54:27.966Z,67.66
2019-03-17T17:56:56.960Z,67.58
2019-03-17T17:59:25.594Z,67.58
2019-03-17T18:01:54.275Z,69.08
2019-03-17T18:04:22.938Z,69.87
2019-03-17T18:06:51.912Z,70.02
2019-03-17T18:09:21.115Z,70.56
2019-03-17T18:11:49.758Z,71.78
2019-03-17T18:14:19.098Z,71.78
2019-03-17T18:16:47.989Z,71.84
2019-03-17T18:19:17.006Z,72.25
2019-03-17T18:21:45.977Z,71.99
2019-03-17T18:24:14.590Z,71.86
2019-03-17T18:26:43.560Z,71.98
2019-03-17T18:29:12.581Z,71.98
2019-03-17T18:31:41.547Z,71.44
2019-03-17T18:34:10.526Z,71.44
2019-03-17T18:36:39.210Z,71.67
2019-03-17T18:39:08.234Z,72.23
2019-03-17T18:41:36.853Z,72.23
2019-03-17T18:44:06.031Z,74.19
2019-03-17T18:46:38.030Z,74.52
2019-03-17T18:49:07.077Z,74.53
2019-03-17T18:51:35.726Z,74.53
2019-03-17T18:54:05.615Z,74.41
2019-03-17T18:56:34.767Z,73.87
2019-03-17T18:59:03.435Z,74.76
2019-03-17T19:01:32.355Z,74.76
2019-03-17T19:04:01.329Z,73.83
2019-03-17T19:06:30.257Z,72.00
2019-03-17T19:08:58.881Z,71.06
2019-03-17T19:11:27.550Z,68.76
2019-03-17T19:13:56.791Z,68.76
2019-03-17T19:16:25.408Z,68.44
2019-03-17T19:18:54.373Z,68.50
2019-03-17T19:21:23.037Z,68.07
2019-03-17T19:23:51.945Z,68.07
2019-03-17T19:26:20.574Z,68.54
2019-03-17T19:28:49.517Z,69.03
2019-03-17T19:31:19.851Z,69.03
2019-03-17T19:33:48.502Z,69.58
2019-03-17T19:36:17.438Z,69.96
2019-03-17T19:38:46.335Z,70.53
2019-03-17T19:41:14.956Z,71.25
2019-03-17T19:43:43.618Z,71.83
2019-03-17T19:46:12.595Z,72.11
2019-03-17T19:48:41.241Z,72.11
2019-03-17T19:51:10.690Z,72.83
2019-03-17T19:53:39.669Z,72.97
2019-03-17T19:56:08.608Z,72.55
2019-03-17T19:58:37.202Z,72.41
2019-03-17T20:01:06.186Z,71.61
2019-03-17T20:03:35.129Z,71.03
2019-03-17T20:06:04.113Z,70.45
2019-03-17T20:08:33.146Z,70.04
2019-03-17T20:11:02.019Z,69.85
2019-03-17T20:13:30.658Z,70.00
2019-03-17T20:15:59.609Z,70.03
2019-03-17T20:18:28.586Z,69.39
2019-03-17T20:20:57.555Z,68.87
2019-03-17T20:23:26.962Z,68.85
2019-03-17T20:25:56.007Z,68.95
2019-03-17T20:28:24.968Z,69.63
2019-03-17T20:30:53.574Z,69.63
2019-03-17T20:33:22.296Z,69.41
2019-03-17T20:35:51.208Z,69.94
2019-03-17T20:38:20.124Z,70.89
2019-03-17T20:40:48.971Z,70.89
2019-03-17T20:43:29.042Z,72.24
2019-03-17T20:45:48.594Z,72.24
2019-03-17T20:48:17.772Z,72.91
2019-03-17T20:50:46.394Z,73.15
2019-03-17T20:53:15.119Z,73.15
2019-03-17T20:55:43.997Z,72.98
2019-03-17T20:58:13.190Z,73.07
2019-03-17T21:00:41.893Z,73.52
2019-03-17T21:03:10.876Z,73.64
2019-03-17T21:05:39.871Z,73.63
2019-03-17T21:08:08.788Z,73.45
2019-03-17T21:10:37.468Z,73.35
2019-03-17T21:13:06.325Z,73.09
2019-03-17T21:15:35.334Z,72.74
2019-03-17T21:18:04.318Z,72.42
2019-03-17T21:20:33.634Z,72.23
2019-03-17T21:23:02.932Z,71.50
2019-03-17T21:25:31.819Z,71.61
2019-03-17T21:28:01.291Z,72.10
2019-03-17T21:30:30.235Z,71.99
2019-03-17T21:32:58.924Z,71.44
2019-03-17T21:35:28.500Z,71.39
2019-03-17T21:37:57.517Z,71.19
2019-03-17T21:40:26.174Z,71.27
2019-03-17T21:42:56.034Z,71.67
2019-03-17T21:45:27.269Z,72.02
2019-03-17T21:47:55.273Z,72.60
2019-03-17T21:50:23.916Z,72.45
2019-03-17T21:52:52.606Z,72.50
2019-03-17T21:55:21.793Z,72.46
2019-03-17T21:57:50.732Z,72.13
2019-03-17T22:00:20.087Z,71.60
2019-03-17T22:02:48.829Z,71.96
2019-03-17T22:05:17.739Z,71.46
2019-03-17T22:07:51.126Z,71.57
2019-03-17T22:10:16.898Z,71.77
2019-03-17T22:12:45.756Z,71.40
2019-03-17T22:15:14.486Z,72.07
2019-03-17T22:17:43.380Z,72.05
2019-03-17T22:20:12.098Z,71.96
2019-03-17T22:22:40.726Z,71.96
2019-03-17T22:25:09.521Z,72.12
2019-03-17T22:27:38.183Z,71.98
2019-03-17T22:30:08.184Z,71.91
2019-03-17T22:32:36.825Z,71.94
2019-03-17T22:35:06.216Z,71.85
2019-03-17T22:37:35.218Z,72.08
2019-03-17T22:40:04.502Z,72.02
2019-03-17T22:42:33.802Z,71.59
2019-03-17T22:45:02.999Z,71.64
2019-03-17T22:47:31.598Z,72.07
2019-03-17T22:50:00.364Z,72.23
2019-03-17T22:52:29.572Z,72.05
2019-03-17T22:54:58.887Z,72.08
2019-03-17T22:57:28.490Z,72.21
2019-03-17T22:59:57.677Z,71.79
2019-03-17T23:02:26.383Z,71.96
2019-03-17T23:04:55.045Z,72.10
2019-03-17T23:07:23.693Z,72.14
2019-03-17T23:09:52.637Z,71.79
2019-03-17T23:12:21.359Z,71.52
2019-03-17T23:14:50.315Z,71.80
2019-03-17T23:17:18.935Z,71.72
2019-03-17T23:19:47.597Z,72.01
2019-03-17T23:22:16.216Z,71.89
2019-03-17T23:24:44.874Z,72.33
2019-03-17T23:27:13.606Z,71.68
2019-03-17T23:29:42.282Z,71.94
2019-03-17T23:32:11.219Z,72.13
2019-03-17T23:34:40.731Z,72.00
2019-03-17T23:37:09.736Z,72.21
2019-03-17T23:39:38.454Z,72.13
2019-03-17T23:42:07.400Z,72.01
2019-03-17T23:44:48.290Z,71.94
2019-03-17T23:47:07.061Z,72.08
2019-03-17T23:49:36.019Z,71.87
2019-03-17T23:52:04.724Z,71.80
2019-03-17T23:54:35.947Z,71.52
2019-03-17T23:57:04.650Z,71.56
2019-03-17T23:59:34.244Z,71.43
